Time;durP1;ratioP1;P1;durP2;ratioP2;P2;SDS_P1;SDS_P2;PMS_P1;PMS_P2;Temp;Humidity;BMP_temperature;BMP_pressure;BME280_temperature;BME280_humidity;BME280_pressure;Samples;Min_cycle;Max_cycle;Signal;HPM_P1;HPM_P2
2022/09/20 00:01:53;;;;;;;5.50;2.10;;;;;;;;;;5089344;28;20031;-76
2022/09/20 00:04:18;;;;;;;8.95;1.70;;;;;;;;;;5089631;28;20112;-77
2022/09/20 00:06:44;;;;;;;6.15;1.98;;;;;;;;;;5088992;28;20036;-77
2022/09/20 00:09:09;;;;;;;4.80;1.80;;;;;;;;;;5089283;28;20039;-77
2022/09/20 00:11:35;;;;;;;3.88;1.80;;;;;;;;;;5089252;28;20031;-77
2022/09/20 00:14:02;;;;;;;6.80;2.00;;;;;;;;;;5089331;28;20050;-76
2022/09/20 00:16:34;;;;;;;4.35;1.90;;;;;;;;;;5089169;28;20035;-76
2022/09/20 00:19:02;;;;;;;2.92;1.60;;;;;;;;;;5089550;28;20035;-77
2022/09/20 00:21:30;;;;;;;5.75;1.77;;;;;;;;;;5089043;28;20032;-76
2022/09/20 00:23:58;;;;;;;4.82;1.83;;;;;;;;;;5089370;28;20035;-76
2022/09/20 00:26:25;;;;;;;6.15;1.70;;;;;;;;;;5088898;28;20496;-77
2022/09/20 00:28:51;;;;;;;7.80;1.95;;;;;;;;;;5088926;28;20028;-76
2022/09/20 00:31:17;;;;;;;3.20;1.88;;;;;;;;;;5089447;28;20046;-76
2022/09/20 00:36:27;;;;;;;6.72;1.80;;;;;;;;;;5089095;28;20082;-76
2022/09/20 00:38:57;;;;;;;6.65;1.95;;;;;;;;;;5089226;28;20044;-77
2022/09/20 00:41:24;;;;;;;5.75;1.73;;;;;;;;;;5071158;28;20063;-77
2022/09/20 00:43:49;;;;;;;3.92;1.35;;;;;;;;;;5088985;28;20032;-77
2022/09/20 00:46:23;;;;;;;4.60;1.70;;;;;;;;;;5088567;28;20032;-76
2022/09/20 00:48:52;;;;;;;6.63;1.70;;;;;;;;;;5089261;28;20020;-77
2022/09/20 00:51:25;;;;;;;4.45;1.63;;;;;;;;;;5088999;28;20060;-76
2022/09/20 00:53:53;;;;;;;4.75;1.90;;;;;;;;;;5092603;28;20032;-77
2022/09/20 00:56:28;;;;;;;4.30;1.83;;;;;;;;;;5092963;28;20078;-76
2022/09/20 00:59:14;;;;;;;4.25;1.80;;;;;;;;;;5092646;28;20121;-77
2022/09/20 01:01:41;;;;;;;4.10;1.70;;;;;;;;;;5075182;28;20156;-76
2022/09/20 01:04:07;;;;;;;6.68;1.70;;;;;;;;;;5092853;28;20077;-76
2022/09/20 01:06:34;;;;;;;8.07;1.73;;;;;;;;;;5092718;28;20028;-76
2022/09/20 01:09:02;;;;;;;2.95;1.52;;;;;;;;;;5092859;28;20398;-77
2022/09/20 01:11:29;;;;;;;6.97;1.80;;;;;;;;;;5074381;28;20016;-77
2022/09/20 01:13:54;;;;;;;7.63;1.80;;;;;;;;;;5092383;28;20653;-77
2022/09/20 01:16:21;;;;;;;5.10;1.77;;;;;;;;;;5092180;28;20102;-76
2022/09/20 01:18:48;;;;;;;4.28;1.70;;;;;;;;;;5092356;28;20032;-77
2022/09/20 01:21:14;;;;;;;6.53;1.60;;;;;;;;;;5092686;28;20054;-77
2022/09/20 01:23:51;;;;;;;6.25;1.48;;;;;;;;;;5092405;28;20031;-76
2022/09/20 01:26:33;;;;;;;5.22;1.73;;;;;;;;;;5092478;28;20511;-76
2022/09/20 01:29:23;;;;;;;12.80;2.10;;;;;;;;;;5092113;28;20464;-77
2022/09/20 01:31:53;;;;;;;6.73;1.70;;;;;;;;;;5092262;28;20034;-77
2022/09/20 01:34:35;;;;;;;7.25;1.90;;;;;;;;;;5092192;28;20118;-75
2022/09/20 01:37:19;;;;;;;9.43;2.10;;;;;;;;;;5091822;28;20636;-75
2022/09/20 01:39:51;;;;;;;6.82;1.80;;;;;;;;;;5092286;28;20551;-76
2022/09/20 01:42:16;;;;;;;7.63;1.80;;;;;;;;;;5073566;28;20028;-75
2022/09/20 01:44:47;;;;;;;11.30;2.38;;;;;;;;;;5092394;28;20035;-76
2022/09/20 01:47:28;;;;;;;7.43;2.22;;;;;;;;;;5091511;28;20028;-76
2022/09/20 01:50:20;;;;;;;8.13;2.20;;;;;;;;;;5092096;28;20028;-75
2022/09/20 01:53:03;;;;;;;6.30;1.70;;;;;;;;;;5091670;28;20755;-75
2022/09/20 01:55:44;;;;;;;5.45;2.28;;;;;;;;;;5091917;28;20498;-75
2022/09/20 01:58:18;;;;;;;6.75;2.10;;;;;;;;;;5091417;28;20031;-75
2022/09/20 02:01:34;;;;;;;8.57;2.00;;;;;;;;;;5091961;28;20031;-75
2022/09/20 02:04:03;;;;;;;11.85;2.20;;;;;;;;;;5034280;28;20051;-75
2022/09/20 02:06:38;;;;;;;4.55;2.08;;;;;;;;;;5091661;28;20033;-75
2022/09/20 02:09:40;;;;;;;6.07;1.90;;;;;;;;;;5091411;28;20039;-75
2022/09/20 02:12:38;;;;;;;11.68;2.08;;;;;;;;;;5091113;28;20031;-76
2022/09/20 02:15:42;;;;;;;6.57;1.80;;;;;;;;;;5046300;28;20396;-76
2022/09/20 02:18:17;;;;;;;9.32;1.80;;;;;;;;;;5089993;28;20055;-75
2022/09/20 02:20:55;;;;;;;11.43;1.92;;;;;;;;;;5090168;28;20575;-75
2022/09/20 02:23:39;;;;;;;10.10;1.92;;;;;;;;;;5091266;28;20081;-76
2022/09/20 02:26:37;;;;;;;6.63;2.03;;;;;;;;;;5091066;28;20032;-80
2022/09/20 02:29:24;;;;;;;6.55;2.05;;;;;;;;;;5090888;28;20046;-78
2022/09/20 02:32:05;;;;;;;4.30;1.70;;;;;;;;;;5091444;28;20073;-80
2022/09/20 02:34:56;;;;;;;4.75;1.83;;;;;;;;;;5091311;28;20019;-77
2022/09/20 02:37:30;;;;;;;6.45;1.90;;;;;;;;;;5091000;28;20024;-77
2022/09/20 02:40:16;;;;;;;8.38;1.60;;;;;;;;;;5091339;28;20034;-77
2022/09/20 02:43:28;;;;;;;11.15;1.90;;;;;;;;;;5090488;28;20036;-77
2022/09/20 02:46:04;;;;;;;6.63;1.80;;;;;;;;;;5070578;28;20036;-76
2022/09/20 02:48:41;;;;;;;5.00;1.73;;;;;;;;;;5090836;28;20571;-76
2022/09/20 02:51:21;;;;;;;4.90;1.88;;;;;;;;;;5091026;28;20024;-76
2022/09/20 02:54:14;;;;;;;3.80;1.90;;;;;;;;;;5090732;28;20036;-76
2022/09/20 02:57:01;;;;;;;3.72;1.50;;;;;;;;;;5090743;28;20028;-75
2022/09/20 02:59:39;;;;;;;6.15;1.67;;;;;;;;;;5089301;28;20024;-75
2022/09/20 03:02:38;;;;;;;5.50;1.80;;;;;;;;;;5090493;28;20081;-76
2022/09/20 03:05:30;;;;;;;6.07;1.80;;;;;;;;;;5090396;28;20415;-76
2022/09/20 03:08:01;;;;;;;10.90;1.80;;;;;;;;;;5090071;28;20058;-76
2022/09/20 03:10:26;;;;;;;;;;;;;;;;;;5091088;28;20104;-75
2022/09/20 03:13:04;;;;;;;2.83;1.50;;;;;;;;;;5089988;28;20391;-75
2022/09/20 03:15:44;;;;;;;6.55;1.70;;;;;;;;;;5089674;28;20076;-76
2022/09/20 03:18:19;;;;;;;6.80;2.10;;;;;;;;;;5089905;28;20035;-75
2022/09/20 03:21:10;;;;;;;4.70;1.80;;;;;;;;;;5090234;28;20028;-76
2022/09/20 03:23:43;;;;;;;3.53;1.48;;;;;;;;;;5071981;28;20031;-75
2022/09/20 03:26:17;;;;;;;4.95;1.50;;;;;;;;;;5090113;28;20024;-76
2022/09/20 03:28:57;;;;;;;5.03;1.60;;;;;;;;;;5089746;28;20073;-76
2022/09/20 03:31:51;;;;;;;7.00;1.65;;;;;;;;;;5089978;28;20030;-75
2022/09/20 03:34:27;;;;;;;3.58;1.75;;;;;;;;;;5089768;28;20032;-75
2022/09/20 03:37:22;;;;;;;5.32;1.70;;;;;;;;;;5089726;28;20115;-76
2022/09/20 03:40:14;;;;;;;6.68;1.63;;;;;;;;;;5089649;28;20491;-75
2022/09/20 03:42:47;;;;;;;3.75;1.67;;;;;;;;;;5089851;28;20028;-75
2022/09/20 03:45:40;;;;;;;4.22;1.92;;;;;;;;;;5090068;28;20052;-75
2022/09/20 03:48:23;;;;;;;3.67;1.60;;;;;;;;;;5089552;28;20035;-75
2022/09/20 03:51:26;;;;;;;7.60;1.80;;;;;;;;;;5090058;28;20031;-76
2022/09/20 03:54:22;;;;;;;4.75;1.40;;;;;;;;;;5089539;28;20032;-75
2022/09/20 03:57:00;;;;;;;5.45;2.00;;;;;;;;;;5089687;28;20591;-76
2022/09/20 03:59:35;;;;;;;5.30;1.90;;;;;;;;;;5089508;28;20039;-75
2022/09/20 04:02:32;;;;;;;3.65;1.52;;;;;;;;;;5089714;28;20028;-75
2022/09/20 04:05:25;;;;;;;5.68;1.80;;;;;;;;;;5089343;28;20028;-75
2022/09/20 04:08:11;;;;;;;4.82;2.08;;;;;;;;;;5089478;28;20043;-76
2022/09/20 04:10:46;;;;;;;5.55;1.73;;;;;;;;;;5089380;28;20047;-77
2022/09/20 04:13:33;;;;;;;6.57;1.92;;;;;;;;;;5088849;28;20032;-75
2022/09/20 04:16:16;;;;;;;5.65;1.80;;;;;;;;;;5089618;28;20387;-75
2022/09/20 04:18:52;;;;;;;6.78;1.90;;;;;;;;;;5089292;28;20675;-76
2022/09/20 04:21:22;;;;;;;4.93;1.70;;;;;;;;;;5071129;28;20400;-76
2022/09/20 04:24:20;;;;;;;2.90;1.57;;;;;;;;;;5089316;28;20031;-77
2022/09/20 04:26:53;;;;;;;3.58;1.60;;;;;;;;;;5088715;28;20274;-76
2022/09/20 04:29:43;;;;;;;4.57;1.60;;;;;;;;;;5070609;28;20028;-76
2022/09/20 04:32:24;;;;;;;4.80;1.75;;;;;;;;;;5089590;28;20056;-75
2022/09/20 04:37:50;;;;;;;4.65;2.10;;;;;;;;;;5089368;28;20427;-75
2022/09/20 04:40:53;;;;;;;3.13;1.67;;;;;;;;;;5089121;28;20028;-75
2022/09/20 04:43:40;;;;;;;3.35;1.80;;;;;;;;;;5088756;28;20028;-75
2022/09/20 04:46:15;;;;;;;8.27;2.08;;;;;;;;;;5070814;28;20039;-75
2022/09/20 04:48:57;;;;;;;5.05;1.80;;;;;;;;;;5070586;28;20485;-75
2022/09/20 04:51:45;;;;;;;8.15;1.73;;;;;;;;;;5089023;28;20020;-76
2022/09/20 04:54:35;;;;;;;5.57;1.75;;;;;;;;;;5088821;28;20032;-75
2022/09/20 04:57:22;;;;;;;4.22;2.00;;;;;;;;;;5088546;28;20025;-75
2022/09/20 05:00:10;;;;;;;5.03;2.10;;;;;;;;;;5088858;28;20024;-75
2022/09/20 05:03:24;;;;;;;7.78;2.08;;;;;;;;;;5088929;28;20036;-75
2022/09/20 05:06:14;;;;;;;8.15;1.90;;;;;;;;;;5088663;28;20034;-78
2022/09/20 05:08:57;;;;;;;5.55;1.92;;;;;;;;;;5088668;28;20040;-77
2022/09/20 05:11:24;;;;;;;5.53;2.00;;;;;;;;;;5088761;28;20036;-78
2022/09/20 05:14:12;;;;;;;4.15;1.90;;;;;;;;;;5088703;28;20578;-75
2022/09/20 05:16:59;;;;;;;6.15;2.10;;;;;;;;;;5088889;28;20126;-75
2022/09/20 05:19:42;;;;;;;5.97;2.08;;;;;;;;;;5088465;28;20024;-75
2022/09/20 05:22:33;;;;;;;5.43;2.10;;;;;;;;;;5088844;28;20038;-77
2022/09/20 05:25:26;;;;;;;6.07;2.22;;;;;;;;;;5074815;28;20047;-77
2022/09/20 05:28:00;;;;;;;8.23;2.50;;;;;;;;;;5088267;28;20066;-77
2022/09/20 05:30:36;;;;;;;7.05;1.88;;;;;;;;;;5088625;28;20027;-77
2022/09/20 05:33:05;;;;;;;6.55;2.22;;;;;;;;;;5088804;28;20077;-76
2022/09/20 05:35:35;;;;;;;8.63;2.28;;;;;;;;;;5088430;28;20115;-77
2022/09/20 05:38:10;;;;;;;6.55;2.15;;;;;;;;;;5088427;28;20114;-77
2022/09/20 05:40:54;;;;;;;4.70;1.90;;;;;;;;;;5091073;28;20024;-77
2022/09/20 05:43:46;;;;;;;8.68;2.40;;;;;;;;;;5073704;28;20524;-77
2022/09/20 05:46:39;;;;;;;6.93;2.15;;;;;;;;;;5091937;28;20017;-76
2022/09/20 05:49:42;;;;;;;7.55;2.20;;;;;;;;;;5092088;28;20028;-76
2022/09/20 05:52:40;;;;;;;7.97;2.20;;;;;;;;;;5092050;28;20116;-77
2022/09/20 05:55:27;;;;;;;5.90;2.15;;;;;;;;;;5091609;28;20067;-77
2022/09/20 05:58:14;;;;;;;6.63;2.10;;;;;;;;;;5073117;28;20024;-76
2022/09/20 06:01:06;;;;;;;6.70;2.13;;;;;;;;;;5091625;28;20043;-76
2022/09/20 06:03:54;;;;;;;10.82;2.00;;;;;;;;;;5073539;28;20104;-76
2022/09/20 06:07:04;;;;;;;12.52;2.50;;;;;;;;;;5073307;28;20492;-76
2022/09/20 06:10:01;;;;;;;10.20;2.47;;;;;;;;;;5053091;28;20102;-76
2022/09/20 06:12:51;;;;;;;7.50;2.58;;;;;;;;;;5091370;28;20105;-76
2022/09/20 06:15:44;;;;;;;12.27;2.40;;;;;;;;;;5091200;28;20624;-76
2022/09/20 06:18:12;;;;;;;9.65;2.38;;;;;;;;;;5091406;28;20032;-76
2022/09/20 06:21:10;;;;;;;13.52;2.60;;;;;;;;;;5091465;28;20115;-76
2022/09/20 06:23:36;;;;;;;8.68;2.53;;;;;;;;;;5091667;28;20024;-76
2022/09/20 06:26:08;;;;;;;15.13;2.85;;;;;;;;;;5091562;28;20031;-76
2022/09/20 06:28:48;;;;;;;13.45;2.47;;;;;;;;;;5090951;28;20036;-76
2022/09/20 06:31:15;;;;;;;10.20;2.40;;;;;;;;;;5091037;28;20036;-77
2022/09/20 06:33:53;;;;;;;13.43;2.90;;;;;;;;;;5091114;28;20035;-76
2022/09/20 06:41:59;;;;;;;13.63;2.42;;;;;;;;;;5090575;28;20345;-76
2022/09/20 06:44:25;;;;;;;9.45;2.60;;;;;;;;;;5091066;28;20016;-76
2022/09/20 06:46:53;;;;;;;14.45;2.70;;;;;;;;;;5091005;28;20026;-76
2022/09/20 06:49:19;;;;;;;14.55;3.00;;;;;;;;;;5090582;28;20478;-79
2022/09/20 06:51:45;;;;;;;10.80;2.75;;;;;;;;;;5090293;28;20020;-76
2022/09/20 06:54:18;;;;;;;11.05;2.80;;;;;;;;;;5072620;28;20024;-77
2022/09/20 06:56:45;;;;;;;18.25;2.53;;;;;;;;;;5089109;28;20472;-76
2022/09/20 06:59:11;;;;;;;11.68;2.60;;;;;;;;;;5090072;28;20487;-76
2022/09/20 07:01:37;;;;;;;16.05;3.03;;;;;;;;;;5090624;28;20034;-76
2022/09/20 07:04:05;;;;;;;16.50;2.67;;;;;;;;;;5090494;28;20032;-77
2022/09/20 07:06:30;;;;;;;9.18;2.78;;;;;;;;;;5090414;28;20039;-76
2022/09/20 07:08:56;;;;;;;13.90;3.10;;;;;;;;;;5090208;28;20578;-76
2022/09/20 07:11:22;;;;;;;10.60;2.80;;;;;;;;;;5090262;28;20502;-77
2022/09/20 07:13:52;;;;;;;13.75;3.05;;;;;;;;;;5090166;28;20031;-76
2022/09/20 07:16:18;;;;;;;;;;;;;;;;;;5090580;28;20055;-76
2022/09/20 07:18:44;;;;;;;16.42;2.85;;;;;;;;;;5090427;28;19947;-76
2022/09/20 07:21:11;;;;;;;16.00;3.05;;;;;;;;;;5090126;28;20024;-76
2022/09/20 07:23:37;;;;;;;11.25;2.75;;;;;;;;;;5090402;28;20032;-77
2022/09/20 07:26:02;;;;;;;16.40;2.78;;;;;;;;;;5089795;28;20024;-77
2022/09/20 07:28:33;;;;;;;12.52;2.63;;;;;;;;;;5089753;28;20391;-77
2022/09/20 07:30:59;;;;;;;9.23;2.65;;;;;;;;;;5089932;28;20031;-76
2022/09/20 07:33:25;;;;;;;9.90;2.60;;;;;;;;;;5090131;28;20028;-76
2022/09/20 07:35:54;;;;;;;10.50;2.35;;;;;;;;;;5089983;28;20027;-76
2022/09/20 07:38:21;;;;;;;8.02;2.40;;;;;;;;;;5089710;28;20024;-76
2022/09/20 07:40:58;;;;;;;7.07;2.20;;;;;;;;;;5089795;28;20031;-76
2022/09/20 07:43:24;;;;;;;11.32;2.03;;;;;;;;;;5089411;28;20103;-76
2022/09/20 07:45:54;;;;;;;11.25;2.10;;;;;;;;;;5089850;28;20440;-76
2022/09/20 07:48:25;;;;;;;4.43;1.60;;;;;;;;;;5089561;28;20032;-77
2022/09/20 07:50:56;;;;;;;8.57;1.67;;;;;;;;;;5089867;28;20032;-76
2022/09/20 07:53:22;;;;;;;6.25;1.58;;;;;;;;;;5089638;28;20063;-77
2022/09/20 07:56:01;;;;;;;5.57;1.75;;;;;;;;;;5089664;28;20024;-76
2022/09/20 07:58:28;;;;;;;5.32;1.50;;;;;;;;;;5089254;28;20046;-77
2022/09/20 08:00:55;;;;;;;6.80;1.70;;;;;;;;;;5089383;28;20085;-77
2022/09/20 08:03:21;;;;;;;12.30;2.20;;;;;;;;;;5088750;28;20471;-77
2022/09/20 08:05:48;;;;;;;9.38;1.80;;;;;;;;;;5089361;28;20020;-77
2022/09/20 08:08:16;;;;;;;8.57;1.60;;;;;;;;;;5089171;28;20405;-77
2022/09/20 08:10:43;;;;;;;8.63;1.60;;;;;;;;;;5089687;28;20476;-77
2022/09/20 08:13:09;;;;;;;3.92;1.58;;;;;;;;;;5088920;28;20162;-77
2022/09/20 08:15:35;;;;;;;7.70;1.40;;;;;;;;;;5089186;28;20534;-77
2022/09/20 08:18:00;;;;;;;4.28;1.48;;;;;;;;;;5088823;28;20028;-76
2022/09/20 08:20:26;;;;;;;4.40;1.60;;;;;;;;;;5089496;28;20036;-76
2022/09/20 08:22:54;;;;;;;4.50;1.40;;;;;;;;;;5089142;28;20454;-76
2022/09/20 08:25:19;;;;;;;2.97;1.20;;;;;;;;;;5089441;28;20139;-77
2022/09/20 08:27:51;;;;;;;4.05;1.27;;;;;;;;;;5088973;28;20559;-77
2022/09/20 08:30:17;;;;;;;4.75;1.20;;;;;;;;;;5089163;28;20111;-76
2022/09/20 08:32:42;;;;;;;3.20;1.20;;;;;;;;;;5088857;28;20107;-79
2022/09/20 08:35:08;;;;;;;7.82;1.30;;;;;;;;;;5089508;28;20064;-77
2022/09/20 08:37:34;;;;;;;8.95;1.60;;;;;;;;;;5088774;28;20522;-77
2022/09/20 08:39:59;;;;;;;5.50;1.30;;;;;;;;;;5088635;28;20060;-77
2022/09/20 08:42:35;;;;;;;3.78;1.30;;;;;;;;;;5088732;28;20032;-76
2022/09/20 08:45:05;;;;;;;4.60;1.17;;;;;;;;;;5089059;28;20472;-76
2022/09/20 08:47:37;;;;;;;5.15;1.25;;;;;;;;;;5088903;28;20020;-76
2022/09/20 08:50:07;;;;;;;3.60;1.30;;;;;;;;;;5088641;28;20074;-76
2022/09/20 08:52:36;;;;;;;6.83;1.30;;;;;;;;;;5088968;28;20082;-76
2022/09/20 08:55:12;;;;;;;4.10;1.35;;;;;;;;;;5088669;28;20297;-77
2022/09/20 08:57:37;;;;;;;3.40;1.30;;;;;;;;;;5088824;28;20032;-76
2022/09/20 09:00:05;;;;;;;6.65;1.42;;;;;;;;;;5088952;28;20389;-76
2022/09/20 09:02:33;;;;;;;3.92;1.25;;;;;;;;;;5088757;28;20024;-76
2022/09/20 09:04:58;;;;;;;5.00;1.20;;;;;;;;;;5070980;28;20024;-77
2022/09/20 09:07:25;;;;;;;3.50;1.25;;;;;;;;;;5088522;28;20040;-76
2022/09/20 09:09:53;;;;;;;7.93;1.35;;;;;;;;;;5088656;28;20571;-77
2022/09/20 09:12:25;;;;;;;4.32;1.20;;;;;;;;;;5088120;28;20032;-77
2022/09/20 09:14:59;;;;;;;5.57;1.30;;;;;;;;;;5092265;28;20035;-76
2022/09/20 09:17:29;;;;;;;6.78;1.50;;;;;;;;;;5092768;28;20032;-76
2022/09/20 09:19:58;;;;;;;3.50;1.30;;;;;;;;;;5092625;28;20036;-76
2022/09/20 09:22:40;;;;;;;6.28;1.50;;;;;;;;;;5092691;28;20360;-76
2022/09/20 09:25:18;;;;;;;3.72;1.23;;;;;;;;;;5092441;28;20523;-76
2022/09/20 09:27:57;;;;;;;3.78;1.52;;;;;;;;;;5091826;28;20491;-76
2022/09/20 09:30:25;;;;;;;5.78;1.30;;;;;;;;;;5092398;28;20020;-76
2022/09/20 09:32:52;;;;;;;4.93;1.33;;;;;;;;;;5092445;28;20028;-76
2022/09/20 09:35:25;;;;;;;3.10;1.15;;;;;;;;;;5092439;28;20036;-76
2022/09/20 09:38:01;;;;;;;3.63;1.40;;;;;;;;;;5092085;28;20055;-76
2022/09/20 09:40:31;;;;;;;6.10;1.35;;;;;;;;;;5092075;28;20027;-76
2022/09/20 09:42:59;;;;;;;4.25;1.25;;;;;;;;;;5091539;28;20024;-77
2022/09/20 09:45:37;;;;;;;3.42;1.20;;;;;;;;;;5091867;28;20036;-76
2022/09/20 09:48:34;;;;;;;6.82;1.40;;;;;;;;;;5091725;28;20035;-77
2022/09/20 09:51:11;;;;;;;7.13;1.40;;;;;;;;;;5091967;28;20024;-76
2022/09/20 09:53:38;;;;;;;4.38;1.10;;;;;;;;;;5091960;28;20020;-77
2022/09/20 09:56:27;;;;;;;8.57;1.20;;;;;;;;;;5092017;28;20504;-77
2022/09/20 09:59:11;;;;;;;2.50;1.00;;;;;;;;;;5091221;28;20030;-76
2022/09/20 10:01:49;;;;;;;5.40;1.15;;;;;;;;;;5091882;28;20043;-77
2022/09/20 10:04:19;;;;;;;4.35;1.17;;;;;;;;;;5091529;28;20131;-78
2022/09/20 10:07:07;;;;;;;3.17;1.00;;;;;;;;;;5091854;28;20040;-77
2022/09/20 10:09:53;;;;;;;3.55;1.13;;;;;;;;;;5091445;28;20486;-77
2022/09/20 10:12:25;;;;;;;5.10;1.80;;;;;;;;;;5091224;28;20109;-77
2022/09/20 10:14:56;;;;;;;2.83;0.98;;;;;;;;;;5091684;28;20039;-77
2022/09/20 10:17:33;;;;;;;3.60;1.20;;;;;;;;;;5091486;28;20027;-77
2022/09/20 10:20:20;;;;;;;2.08;1.10;;;;;;;;;;5091237;28;20032;-74
2022/09/20 10:23:14;;;;;;;6.05;1.30;;;;;;;;;;5091061;28;20123;-75
2022/09/20 10:25:56;;;;;;;2.80;1.20;;;;;;;;;;5090389;28;20038;-75
2022/09/20 10:28:47;;;;;;;2.92;1.20;;;;;;;;;;5090617;28;20028;-75
2022/09/20 10:31:35;;;;;;;4.35;1.10;;;;;;;;;;5091098;28;20059;-75
2022/09/20 10:34:36;;;;;;;4.88;1.20;;;;;;;;;;5072341;28;20028;-75
2022/09/20 10:37:01;;;;;;;3.00;1.10;;;;;;;;;;5068412;28;20484;-75
2022/09/20 10:39:34;;;;;;;2.80;1.20;;;;;;;;;;5090498;28;20020;-76
2022/09/20 10:45:23;;;;;;;3.60;1.30;;;;;;;;;;5091247;28;20089;-74
2022/09/20 10:48:17;;;;;;;4.55;1.23;;;;;;;;;;5090945;28;20518;-75
2022/09/20 10:51:24;;;;;;;3.95;1.10;;;;;;;;;;5086677;28;20036;-74
2022/09/20 10:53:49;;;;;;;4.47;1.23;;;;;;;;;;5077005;28;20111;-76
2022/09/20 10:56:35;;;;;;;2.38;1.00;;;;;;;;;;5090771;28;20115;-77
2022/09/20 10:59:29;;;;;;;2.35;1.10;;;;;;;;;;5090042;28;20035;-75
2022/09/20 11:02:28;;;;;;;4.25;1.10;;;;;;;;;;5090880;28;20028;-76
2022/09/20 11:05:08;;;;;;;3.10;1.00;;;;;;;;;;5090348;28;20032;-76
2022/09/20 11:07:51;;;;;;;3.60;1.00;;;;;;;;;;5090439;28;20048;-77
2022/09/20 11:10:24;;;;;;;3.83;1.00;;;;;;;;;;5090120;28;20112;-75
2022/09/20 11:13:05;;;;;;;4.07;0.90;;;;;;;;;;5090147;28;20027;-75
2022/09/20 11:15:42;;;;;;;2.53;0.90;;;;;;;;;;5090385;28;20144;-76
2022/09/20 11:18:22;;;;;;;3.70;1.10;;;;;;;;;;5090414;28;20031;-76
2022/09/20 11:21:09;;;;;;;5.10;1.20;;;;;;;;;;5090254;28;20044;-76
2022/09/20 11:23:59;;;;;;;4.05;1.02;;;;;;;;;;5090186;28;20051;-75
2022/09/20 11:26:31;;;;;;;3.22;0.98;;;;;;;;;;5090245;28;20502;-75
2022/09/20 11:29:19;;;;;;;3.40;1.00;;;;;;;;;;5089542;28;20032;-76
2022/09/20 11:31:47;;;;;;;2.40;0.95;;;;;;;;;;5089467;28;20032;-76
2022/09/20 11:35:09;;;;;;;2.03;0.90;;;;;;;;;;5089852;28;20115;-76
2022/09/20 11:37:38;;;;;;;3.90;1.17;;;;;;;;;;4987026;28;20080;-76
2022/09/20 11:40:25;;;;;;;2.67;1.13;;;;;;;;;;4987433;28;20640;-76
2022/09/20 11:42:52;;;;;;;2.15;1.00;;;;;;;;;;5048434;28;20048;-76
2022/09/20 11:45:19;;;;;;;2.03;0.90;;;;;;;;;;5089425;28;20433;-75
2022/09/20 11:47:54;;;;;;;2.03;0.90;;;;;;;;;;5090003;28;20024;-75
2022/09/20 11:50:57;;;;;;;2.90;0.90;;;;;;;;;;5089331;28;20124;-76
2022/09/20 11:53:47;;;;;;;2.22;0.88;;;;;;;;;;5089738;28;20495;-76
2022/09/20 11:56:25;;;;;;;2.08;0.90;;;;;;;;;;5089950;28;20024;-76
2022/09/20 11:59:00;;;;;;;2.67;1.00;;;;;;;;;;5089208;28;20406;-75
2022/09/20 12:01:36;;;;;;;5.03;1.00;;;;;;;;;;5089374;28;20073;-76
2022/09/20 12:04:10;;;;;;;4.45;0.90;;;;;;;;;;5089211;28;20495;-76
2022/09/20 12:06:38;;;;;;;2.60;1.00;;;;;;;;;;5089552;28;20484;-75
2022/09/20 12:09:21;;;;;;;2.03;0.90;;;;;;;;;;5071129;28;20042;-76
2022/09/20 12:11:46;;;;;;;2.20;0.98;;;;;;;;;;5089470;28;20063;-75
2022/09/20 12:14:23;;;;;;;7.07;1.00;;;;;;;;;;5088837;28;20062;-75
2022/09/20 12:16:50;;;;;;;2.80;1.00;;;;;;;;;;5089569;28;20059;-76
2022/09/20 12:19:35;;;;;;;3.25;1.00;;;;;;;;;;5089257;28;20089;-75
2022/09/20 12:22:01;;;;;;;3.17;1.00;;;;;;;;;;5089173;28;20502;-75
2022/09/20 12:24:32;;;;;;;4.10;1.00;;;;;;;;;;5089125;28;20024;-76
2022/09/20 12:27:18;;;;;;;4.97;1.00;;;;;;;;;;5088731;28;20111;-75
2022/09/20 12:29:53;;;;;;;1.65;0.90;;;;;;;;;;5088879;28;20028;-75
2022/09/20 12:32:43;;;;;;;3.53;0.90;;;;;;;;;;5089295;28;20095;-75
2022/09/20 12:35:43;;;;;;;1.67;0.90;;;;;;;;;;5088979;28;20393;-76
2022/09/20 12:38:32;;;;;;;3.08;0.90;;;;;;;;;;5089160;28;20091;-76
2022/09/20 12:41:07;;;;;;;1.38;0.80;;;;;;;;;;5088736;28;20032;-76
2022/09/20 12:43:36;;;;;;;3.50;0.80;;;;;;;;;;5088882;28;20048;-76
2022/09/20 12:46:02;;;;;;;3.05;0.90;;;;;;;;;;5088956;28;20024;-75
2022/09/20 12:48:33;;;;;;;3.50;0.93;;;;;;;;;;5090426;28;20024;-75
2022/09/20 12:54:05;;;;;;;4.15;0.70;;;;;;;;;;5093477;28;20123;-76
2022/09/20 12:56:35;;;;;;;2.50;0.70;;;;;;;;;;5092982;28;20031;-76
2022/09/20 12:59:04;;;;;;;2.40;0.93;;;;;;;;;;5092603;28;20100;-76
2022/09/20 13:01:33;;;;;;;2.95;1.02;;;;;;;;;;5092831;28;20660;-75
2022/09/20 13:04:36;;;;;;;5.75;1.00;;;;;;;;;;5092862;28;20061;-76
2022/09/20 13:07:42;;;;;;;2.90;0.82;;;;;;;;;;5092766;28;20135;-76
2022/09/20 13:10:29;;;;;;;2.40;0.80;;;;;;;;;;5041921;28;20059;-76
2022/09/20 13:13:00;;;;;;;2.78;0.85;;;;;;;;;;5092677;28;20111;-76
2022/09/20 13:15:25;;;;;;;;;;;;;;;;;;5092857;28;20479;-76
2022/09/20 13:17:55;;;;;;;2.70;1.00;;;;;;;;;;5074578;28;19998;-76
2022/09/20 13:20:24;;;;;;;1.80;0.90;;;;;;;;;;5092243;28;20024;-76
2022/09/20 13:22:51;;;;;;;3.45;0.80;;;;;;;;;;5092765;28;20055;-75
2022/09/20 13:25:21;;;;;;;2.38;0.73;;;;;;;;;;5092403;28;20104;-76
2022/09/20 13:28:13;;;;;;;1.45;0.70;;;;;;;;;;5092464;28;20173;-76
2022/09/20 13:30:40;;;;;;;4.28;0.80;;;;;;;;;;5091933;28;20024;-76
2022/09/20 13:33:21;;;;;;;2.35;0.90;;;;;;;;;;5092354;28;20543;-75
2022/09/20 13:35:53;;;;;;;4.18;0.85;;;;;;;;;;5092248;28;20032;-76
2022/09/20 13:38:21;;;;;;;1.30;0.70;;;;;;;;;;5092510;28;20040;-76
2022/09/20 13:40:48;;;;;;;2.90;0.73;;;;;;;;;;5092181;28;20081;-75
2022/09/20 13:43:35;;;;;;;1.98;0.80;;;;;;;;;;5091932;28;20032;-76
2022/09/20 13:46:13;;;;;;;2.33;0.73;;;;;;;;;;5073630;28;20057;-76
2022/09/20 13:48:39;;;;;;;4.03;0.73;;;;;;;;;;5092079;28;20028;-77
2022/09/20 13:51:16;;;;;;;1.85;0.60;;;;;;;;;;5073420;28;20062;-76
2022/09/20 13:53:43;;;;;;;1.98;0.80;;;;;;;;;;5092077;28;20028;-75
2022/09/20 13:56:28;;;;;;;3.22;0.80;;;;;;;;;;5091614;28;20032;-76
2022/09/20 13:58:57;;;;;;;4.53;0.90;;;;;;;;;;5091880;28;20032;-75
2022/09/20 14:01:28;;;;;;;1.10;0.63;;;;;;;;;;5090756;28;20027;-75
2022/09/20 14:03:56;;;;;;;4.53;0.80;;;;;;;;;;5091945;28;20028;-76
2022/09/20 14:06:28;;;;;;;2.10;0.65;;;;;;;;;;5073137;28;20033;-76
2022/09/20 14:08:56;;;;;;;1.52;0.70;;;;;;;;;;5091643;28;20036;-75
2022/09/20 14:11:26;;;;;;;4.35;0.68;;;;;;;;;;5091419;28;20020;-76
2022/09/20 14:13:55;;;;;;;1.83;0.73;;;;;;;;;;5091449;28;20028;-76
2022/09/20 14:16:26;;;;;;;2.78;0.75;;;;;;;;;;5091516;28;20473;-76
2022/09/20 14:18:52;;;;;;;1.05;0.68;;;;;;;;;;5091673;28;20032;-76
2022/09/20 14:21:22;;;;;;;1.65;0.70;;;;;;;;;;5090796;28;20028;-76
2022/09/20 14:23:49;;;;;;;1.77;0.63;;;;;;;;;;5091434;28;20020;-76
2022/09/20 14:26:26;;;;;;;2.35;0.60;;;;;;;;;;5091112;28;20024;-76
2022/09/20 14:28:53;;;;;;;2.28;0.70;;;;;;;;;;5091011;28;20025;-75
2022/09/20 14:31:24;;;;;;;2.05;0.80;;;;;;;;;;5090850;28;20082;-76
2022/09/20 14:33:53;;;;;;;1.40;0.75;;;;;;;;;;5091437;28;20056;-75
2022/09/20 14:36:21;;;;;;;1.50;0.60;;;;;;;;;;5091030;28;20034;-76
2022/09/20 14:38:50;;;;;;;2.00;0.60;;;;;;;;;;5091098;28;20077;-76
2022/09/20 14:41:26;;;;;;;17.45;1.13;;;;;;;;;;5090562;28;20461;-76
2022/09/20 14:43:57;;;;;;;1.92;0.50;;;;;;;;;;5090589;28;20046;-76
2022/09/20 14:46:29;;;;;;;4.28;0.60;;;;;;;;;;5090793;28;20035;-76
2022/09/20 14:49:19;;;;;;;3.05;0.50;;;;;;;;;;5090911;28;20116;-76
2022/09/20 14:51:45;;;;;;;1.70;0.70;;;;;;;;;;5072486;28;20020;-76
2022/09/20 14:54:11;;;;;;;4.00;0.70;;;;;;;;;;5072432;28;20020;-76
2022/09/20 14:56:39;;;;;;;2.42;0.60;;;;;;;;;;5090403;28;20103;-76
2022/09/20 14:59:05;;;;;;;1.48;0.60;;;;;;;;;;5090318;28;20012;-76
2022/09/20 15:01:31;;;;;;;1.73;0.80;;;;;;;;;;5090407;28;20028;-75
2022/09/20 15:03:57;;;;;;;3.60;0.75;;;;;;;;;;5090691;28;20548;-76
2022/09/20 15:06:23;;;;;;;1.55;0.80;;;;;;;;;;5090439;28;20028;-76
2022/09/20 15:08:49;;;;;;;5.05;0.65;;;;;;;;;;5105838;28;20073;-76
2022/09/20 15:11:16;;;;;;;2.00;0.52;;;;;;;;;;5110360;28;20060;-76
2022/09/20 15:13:41;;;;;;;2.42;0.55;;;;;;;;;;5110585;28;20027;-76
2022/09/20 15:16:12;;;;;;;1.05;0.70;;;;;;;;;;5110332;28;20046;-76
2022/09/20 15:18:41;;;;;;;6.15;0.95;;;;;;;;;;5110721;28;20031;-76
2022/09/20 15:21:09;;;;;;;2.03;0.70;;;;;;;;;;5110400;28;20041;-75
2022/09/20 15:23:35;;;;;;;2.28;0.70;;;;;;;;;;5110626;28;20043;-76
2022/09/20 15:26:02;;;;;;;0.85;0.60;;;;;;;;;;5110534;28;20028;-76
2022/09/20 15:28:27;;;;;;;3.67;0.70;;;;;;;;;;5110297;27;20027;-76
2022/09/20 15:30:53;;;;;;;1.65;0.60;;;;;;;;;;5110424;27;20024;-75
2022/09/20 15:33:20;;;;;;;1.13;0.60;;;;;;;;;;5110184;28;20027;-76
2022/09/20 15:35:46;;;;;;;3.38;0.82;;;;;;;;;;5110280;28;20135;-75
2022/09/20 15:38:12;;;;;;;2.95;0.77;;;;;;;;;;5110201;28;20031;-75
2022/09/20 15:40:39;;;;;;;1.00;0.60;;;;;;;;;;5110525;28;20027;-76
2022/09/20 15:43:08;;;;;;;1.48;0.60;;;;;;;;;;5108426;28;20073;-75
2022/09/20 15:45:34;;;;;;;3.60;1.00;;;;;;;;;;5110433;28;20038;-76
2022/09/20 15:47:59;;;;;;;2.25;0.70;;;;;;;;;;5109973;28;20112;-76
2022/09/20 15:50:25;;;;;;;2.53;0.80;;;;;;;;;;5110153;28;20028;-76
2022/09/20 15:52:50;;;;;;;1.50;0.70;;;;;;;;;;5109671;28;20371;-76
2022/09/20 15:55:17;;;;;;;4.55;0.77;;;;;;;;;;5109880;28;20031;-75